Time;durP1;ratioP1;P1;durP2;ratioP2;P2;SDS_P1;SDS_P2;PMS_P1;PMS_P2;Temp;Humidity;BMP_temperature;BMP_pressure;BME280_temperature;BME280_humidity;BME280_pressure;Samples;Min_cycle;Max_cycle;Signal;HPM_P1;HPM_P2
2022/05/05 00:02:07;;;;;;;4.07;3.77;;;16.80;78.40;17.30;96563.00;;;;5036712;28;20279;-83
2022/05/05 00:04:34;;;;;;;4.10;3.80;;;16.80;78.40;17.30;96560.00;;;;5040607;28;20232;-83
2022/05/05 00:07:01;;;;;;;3.97;3.67;;;16.80;78.40;17.30;96559.00;;;;5049698;28;20658;-83
2022/05/05 00:09:28;;;;;;;4.43;4.03;;;16.80;78.40;17.30;96553.00;;;;5043507;28;20266;-82
2022/05/05 00:14:42;;;;;;;4.20;3.90;;;16.80;78.30;17.30;96557.00;;;;5049766;28;20208;-83
2022/05/05 00:17:11;;;;;;;4.17;3.87;;;16.90;78.20;17.30;96558.00;;;;5043281;28;20606;-82
2022/05/05 00:19:42;;;;;;;4.23;3.93;;;16.90;78.10;17.30;96557.00;;;;5031984;28;20541;-83
2022/05/05 00:22:11;;;;;;;4.07;3.77;;;16.80;78.20;17.30;96551.00;;;;5044197;28;20263;-83
2022/05/05 00:24:39;;;;;;;3.67;3.37;;;16.80;78.10;17.30;96552.00;;;;5041387;28;20201;-83
2022/05/05 00:27:09;;;;;;;4.40;4.10;;;16.90;78.10;17.30;96554.00;;;;5039102;28;20674;-83
2022/05/05 00:29:36;;;;;;;4.10;3.83;;;16.90;77.90;17.30;96557.00;;;;5037293;28;20204;-83
2022/05/05 00:32:04;;;;;;;4.00;3.70;;;16.80;77.90;17.30;96555.00;;;;5043619;28;20217;-82
2022/05/05 00:34:31;;;;;;;3.20;3.00;;;16.80;77.90;17.30;96565.00;;;;5045577;28;20633;-83
2022/05/05 00:36:59;;;;;;;4.80;4.13;;;16.80;78.00;17.30;96558.00;;;;5048666;28;20674;-83
2022/05/05 00:39:26;;;;;;;4.20;3.90;;;16.90;77.90;17.30;96564.00;;;;5037090;28;20284;-83
2022/05/05 00:41:53;;;;;;;4.60;4.30;;;16.80;77.90;17.30;96559.00;;;;5040000;28;20220;-83
2022/05/05 00:44:22;;;;;;;4.53;4.13;;;16.80;78.00;17.30;96560.00;;;;5048298;28;20197;-83
2022/05/05 00:46:52;;;;;;;4.80;4.40;;;16.80;78.20;17.30;96564.00;;;;5034352;28;20205;-83
2022/05/05 00:49:20;;;;;;;4.70;4.40;;;16.80;78.20;17.30;96559.00;;;;5041534;28;20200;-83
2022/05/05 00:51:47;;;;;;;4.27;3.97;;;16.80;78.20;17.30;96552.00;;;;5042284;28;20301;-82
2022/05/05 00:54:14;;;;;;;4.50;4.10;;;16.80;78.10;17.30;96560.00;;;;5045934;28;20569;-83
2022/05/05 00:56:46;;;;;;;5.47;4.10;;;16.80;78.10;17.30;96560.00;;;;5040661;28;20223;-84
2022/05/05 00:59:13;;;;;;;4.53;4.23;;;16.80;78.30;17.30;96560.00;;;;5042139;28;20197;-83
2022/05/05 01:01:42;;;;;;;4.73;4.43;;;16.80;78.20;17.30;96560.00;;;;5035848;28;20698;-81
2022/05/05 01:04:09;;;;;;;4.87;4.47;;;16.80;78.20;17.30;96556.00;;;;5039692;28;20224;-83
2022/05/05 01:06:37;;;;;;;4.77;4.47;;;16.80;78.10;17.30;96561.00;;;;5042013;28;20674;-83
2022/05/05 01:09:07;;;;;;;5.20;4.80;;;16.80;78.10;17.30;96554.00;;;;5040945;28;20201;-83
2022/05/05 01:11:34;;;;;;;4.73;4.33;;;16.80;78.10;17.20;96562.00;;;;5045698;28;20224;-83
2022/05/05 01:14:01;;;;;;;4.00;3.67;;;16.80;78.20;17.20;96560.00;;;;5030145;28;20190;-82
2022/05/05 01:16:29;;;;;;;5.40;5.00;;;16.70;78.20;17.20;96557.00;;;;5038213;28;20761;-83
2022/05/05 01:18:58;;;;;;;4.80;4.40;;;16.70;78.30;17.20;96560.00;;;;5044792;28;20196;-83
2022/05/05 01:21:26;;;;;;;5.07;4.57;;;16.80;78.50;17.20;96553.00;;;;5043030;28;20598;-83
2022/05/05 01:23:53;;;;;;;4.70;4.33;;;16.80;78.60;17.20;96556.00;;;;5037800;28;20189;-83
2022/05/05 01:29:06;;;;;;;5.20;4.80;;;16.80;78.70;17.30;96555.00;;;;5047446;28;20739;-83
2022/05/05 01:31:34;;;;;;;4.37;4.07;;;16.70;78.60;17.30;96557.00;;;;5043585;28;20279;-83
2022/05/05 01:34:01;;;;;;;5.00;4.60;;;16.80;78.80;17.30;96556.00;;;;5053605;28;20206;-83
2022/05/05 01:36:29;;;;;;;5.17;4.77;;;16.80;78.80;17.20;96554.00;;;;5036780;28;20217;-83
2022/05/05 01:38:56;;;;;;;4.93;4.50;;;16.70;78.80;17.20;96555.00;;;;5046647;28;20207;-83
2022/05/05 01:41:24;;;;;;;4.90;4.50;;;16.70;79.60;17.20;96547.00;;;;5040910;28;20583;-83
2022/05/05 01:43:51;;;;;;;5.70;5.20;;;16.70;78.90;17.20;96551.00;;;;5033143;28;20284;-83
2022/05/05 01:46:18;;;;;;;5.07;4.67;;;16.70;78.90;17.20;96551.00;;;;5039597;28;20193;-83
2022/05/05 01:48:45;;;;;;;5.13;4.73;;;16.80;78.90;17.20;96558.00;;;;5002141;28;1145736;-83
2022/05/05 01:51:12;;;;;;;4.87;4.47;;;16.80;78.80;17.20;96550.00;;;;5042402;28;20284;-83
2022/05/05 01:53:40;;;;;;;4.87;4.50;;;16.80;78.80;17.20;96559.00;;;;5044594;28;20203;-83
2022/05/05 01:56:11;;;;;;;4.57;4.27;;;16.80;78.80;17.20;96551.00;;;;5052614;28;20274;-82
2022/05/05 01:58:41;;;;;;;5.00;4.60;;;16.70;78.70;17.20;96554.00;;;;5043111;28;20242;-83
2022/05/05 02:01:09;;;;;;;5.17;4.77;;;16.70;78.70;17.20;96561.00;;;;5040629;28;20199;-83
2022/05/05 02:03:36;;;;;;;4.40;4.10;;;16.80;78.80;17.20;96553.00;;;;5047959;28;20209;-80
2022/05/05 02:06:03;;;;;;;4.77;4.47;;;16.70;78.70;17.20;96555.00;;;;5050464;28;20193;-81
2022/05/05 02:08:30;;;;;;;5.27;4.87;;;16.70;78.80;17.20;96547.00;;;;5037733;28;20208;-81
2022/05/05 02:10:59;;;;;;;5.00;4.57;;;16.70;78.80;17.30;96543.00;;;;5044416;28;20189;-80
2022/05/05 02:13:26;;;;;;;5.07;4.67;;;16.70;79.00;17.20;96549.00;;;;5036968;28;20232;-82
2022/05/05 02:15:52;;;;;;;5.80;5.30;;;16.70;78.90;17.20;96548.00;;;;5056684;28;20225;-81
2022/05/05 02:18:20;;;;;;;5.60;5.20;;;16.70;78.80;17.20;96549.00;;;;5055937;28;20192;-80
2022/05/05 02:20:47;;;;;;;5.80;5.30;;;16.70;78.60;17.20;96550.00;;;;5039321;28;20203;-80
2022/05/05 02:23:15;;;;;;;5.50;5.10;;;16.70;78.70;17.20;96559.00;;;;5055350;28;20216;-80
2022/05/05 02:25:42;;;;;;;5.07;4.77;;;16.70;78.80;17.20;96558.00;;;;5055356;28;20201;-81
2022/05/05 02:28:11;;;;;;;5.63;5.00;;;16.70;78.70;17.20;96549.00;;;;5055769;28;20196;-80
2022/05/05 02:30:38;;;;;;;5.23;4.77;;;16.70;78.60;17.10;96547.00;;;;5055220;28;20204;-81
2022/05/05 02:33:05;;;;;;;5.50;5.00;;;16.70;78.50;17.10;96553.00;;;;5054883;28;20641;-80
2022/05/05 02:35:32;;;;;;;5.67;5.27;;;16.60;78.40;17.10;96539.00;;;;5044157;28;20201;-81
2022/05/05 02:40:44;;;;;;;5.50;5.03;;;16.60;78.20;17.00;96552.00;;;;5036871;28;20207;-81
2022/05/05 02:43:12;;;;;;;4.77;4.37;;;16.60;78.10;17.00;96547.00;;;;5034137;28;20224;-81
2022/05/05 02:45:40;;;;;;;5.20;4.80;;;16.60;78.00;16.90;96547.00;;;;5052231;28;20205;-81
2022/05/05 02:48:08;;;;;;;4.77;4.47;;;16.50;77.80;16.90;96547.00;;;;5040738;28;20193;-82
2022/05/05 02:50:35;;;;;;;4.77;4.43;;;16.50;77.80;16.90;96540.00;;;;5050789;28;20204;-81
2022/05/05 02:54:46;;;;;;;5.53;5.13;;;16.50;77.90;16.80;96541.00;;;;5053374;28;20220;-81
2022/05/05 02:55:48;;;;;;;5.63;5.23;;;16.40;77.90;16.80;96546.00;;;;5053717;28;20197;-82
2022/05/05 02:58:16;;;;;;;5.20;4.73;;;16.40;77.90;16.70;96556.00;;;;5054077;28;20203;-82
2022/05/05 03:00:43;;;;;;;5.63;5.13;;;16.30;77.80;16.60;96563.00;;;;5054089;28;20204;-81
2022/05/05 03:03:10;;;;;;;5.20;4.80;;;16.30;78.30;16.60;96568.00;;;;5053755;28;20220;-81
2022/05/05 03:05:38;;;;;;;5.40;4.90;;;16.20;77.40;16.50;96560.00;;;;5051406;28;20201;-82
2022/05/05 03:08:06;;;;;;;4.77;4.37;;;16.20;77.50;16.40;96567.00;;;;5040664;28;20193;-83
2022/05/05 03:10:33;;;;;;;5.13;4.73;;;16.10;77.50;16.40;96567.00;;;;5048762;28;20204;-82
2022/05/05 03:13:00;;;;;;;4.47;4.10;;;16.10;77.60;16.40;96572.00;;;;5044032;28;20220;-81
2022/05/05 03:15:28;;;;;;;5.20;4.17;;;16.00;77.70;16.30;96570.00;;;;5036322;28;20205;-81
2022/05/05 03:17:55;;;;;;;4.47;4.17;;;16.00;77.90;16.30;96574.00;;;;5046259;28;20224;-82
2022/05/05 03:20:23;;;;;;;4.43;4.13;;;16.00;78.20;16.30;96579.00;;;;5044297;28;20205;-81
2022/05/05 03:22:50;;;;;;;4.60;4.30;;;16.00;78.50;16.30;96564.00;;;;5042214;28;20712;-82
2022/05/05 03:25:17;;;;;;;4.03;3.73;;;16.00;78.70;16.30;96573.00;;;;5053338;28;20200;-81
2022/05/05 03:27:44;;;;;;;3.90;3.60;;;15.90;78.80;16.40;96570.00;;;;5046798;28;20280;-83
2022/05/05 03:30:12;;;;;;;4.33;4.03;;;15.90;78.90;16.40;96572.00;;;;5033534;28;20212;-81
2022/05/05 03:32:40;;;;;;;3.63;3.33;;;16.00;79.00;16.40;96573.00;;;;5048707;28;20227;-81
2022/05/05 03:35:09;;;;;;;3.60;3.30;;;16.00;79.20;16.40;96574.00;;;;5052571;28;20208;-81
2022/05/05 03:37:36;;;;;;;3.17;2.97;;;16.00;79.20;16.40;96568.00;;;;5051261;28;20800;-81
2022/05/05 03:40:05;;;;;;;3.40;3.20;;;15.90;79.20;16.40;96571.00;;;;5033410;28;20193;-82
2022/05/05 03:42:32;;;;;;;3.73;3.43;;;15.90;79.10;16.40;96570.00;;;;5037666;28;20227;-82
2022/05/05 03:44:59;;;;;;;3.50;3.30;;;16.00;79.00;16.40;96575.00;;;;5032989;28;20207;-81
2022/05/05 03:47:26;;;;;;;3.43;3.23;;;15.90;79.50;16.40;96577.00;;;;5033620;28;20209;-82
2022/05/05 03:49:54;;;;;;;3.30;3.10;;;16.00;78.80;16.40;96579.00;;;;5045007;28;20211;-81
2022/05/05 03:52:21;;;;;;;3.03;2.83;;;16.00;78.80;16.40;96571.00;;;;5051641;28;20213;-80
2022/05/05 03:54:48;;;;;;;3.53;3.23;;;15.90;78.70;16.30;96575.00;;;;5048653;28;20211;-82
2022/05/05 03:57:15;;;;;;;3.53;3.33;;;15.90;78.70;16.40;96569.00;;;;5053011;28;20228;-81
2022/05/05 03:59:42;;;;;;;3.27;3.00;;;16.00;78.80;16.30;96579.00;;;;5053950;28;20197;-80
2022/05/05 04:02:09;;;;;;;2.83;2.63;;;15.90;78.90;16.40;96578.00;;;;5052045;28;20216;-80
2022/05/05 04:04:36;;;;;;;3.20;3.00;;;15.90;79.00;16.40;96581.00;;;;5044080;28;20193;-80
2022/05/05 04:07:05;;;;;;;3.60;3.30;;;15.90;79.10;16.40;96582.00;;;;5036301;28;20208;-81
2022/05/05 04:09:32;;;;;;;3.50;3.20;;;15.90;79.20;16.40;96583.00;;;;5051691;28;20201;-82
2022/05/05 04:11:59;;;;;;;2.90;2.70;;;15.90;79.30;16.40;96588.00;;;;5044226;28;20232;-81
2022/05/05 04:14:26;;;;;;;2.83;2.63;;;16.00;79.40;16.40;96584.00;;;;5052152;28;20665;-80
2022/05/05 04:16:53;;;;;;;3.27;3.07;;;15.90;79.20;16.40;96592.00;;;;5053830;28;20220;-80
2022/05/05 04:19:20;;;;;;;3.10;2.90;;;16.00;79.40;16.50;96594.00;;;;5034397;28;20841;-83
2022/05/05 04:21:47;;;;;;;3.00;2.80;;;16.00;79.40;16.50;96592.00;;;;5053574;28;20216;-83
2022/05/05 04:24:16;;;;;;;3.47;3.27;;;16.00;79.50;16.50;96585.00;;;;5052469;28;20193;-80
2022/05/05 04:26:44;;;;;;;3.20;3.00;;;16.00;79.40;16.50;96581.00;;;;5053426;28;20211;-78
2022/05/05 04:29:12;;;;;;;3.00;2.80;;;16.00;79.30;16.50;96584.00;;;;5050674;28;20677;-80
2022/05/05 04:31:40;;;;;;;3.20;3.00;;;16.00;79.30;16.60;96584.00;;;;5050582;28;20716;-78
2022/05/05 04:34:07;;;;;;;3.33;3.13;;;16.00;79.40;16.60;96585.00;;;;5051429;28;20200;-80
2022/05/05 04:36:35;;;;;;;3.73;3.43;;;16.10;79.50;16.70;96581.00;;;;5051382;28;20216;-78
2022/05/05 04:39:03;;;;;;;2.80;2.60;;;16.10;79.50;16.70;96576.00;;;;5031513;28;20198;-79
2022/05/05 04:41:32;;;;;;;3.30;3.00;;;16.10;79.50;16.80;96584.00;;;;5031564;28;20250;-80
2022/05/05 04:43:59;;;;;;;3.40;3.10;;;16.10;79.70;16.80;96584.00;;;;5047141;28;20201;-78
2022/05/05 04:46:26;;;;;;;2.77;2.60;;;16.20;79.80;16.80;96592.00;;;;5030997;28;20248;-79
2022/05/05 04:48:53;;;;;;;2.90;2.73;;;16.20;79.80;16.90;96595.00;;;;5049021;28;20200;-78
2022/05/05 04:51:20;;;;;;;3.10;2.90;;;16.20;79.80;16.90;96598.00;;;;5050964;28;20210;-80
2022/05/05 04:53:47;;;;;;;3.47;3.17;;;16.30;79.70;17.00;96591.00;;;;5051384;28;20209;-80
2022/05/05 04:56:14;;;;;;;2.97;2.77;;;16.30;79.70;17.00;96592.00;;;;5043672;28;20201;-80
2022/05/05 04:58:42;;;;;;;3.20;3.00;;;16.40;79.90;17.10;96596.00;;;;5031241;28;20225;-79
2022/05/05 05:01:09;;;;;;;3.43;3.13;;;16.40;79.90;17.10;96591.00;;;;5034854;28;20712;-79
2022/05/05 05:03:36;;;;;;;3.57;3.27;;;16.40;79.80;17.10;96602.00;;;;5040975;28;20681;-80
2022/05/05 05:06:05;;;;;;;3.40;3.20;;;16.50;79.80;17.20;96601.00;;;;5045956;28;20307;-80
2022/05/05 05:08:32;;;;;;;3.27;3.07;;;16.50;79.60;17.20;96611.00;;;;5031248;28;20201;-79
2022/05/05 05:10:59;;;;;;;3.40;3.20;;;16.50;79.50;17.30;96615.00;;;;5034393;28;20654;-80
2022/05/05 05:13:27;;;;;;;3.60;3.30;;;16.60;79.60;17.30;96613.00;;;;5034266;28;20221;-80
2022/05/05 05:15:55;;;;;;;3.67;3.47;;;16.60;79.60;17.40;96600.00;;;;5034325;28;20193;-79
2022/05/05 05:18:22;;;;;;;3.70;3.40;;;16.70;79.60;17.40;96604.00;;;;5051050;28;20223;-79
2022/05/05 05:20:49;;;;;;;3.77;3.53;;;16.70;79.50;17.50;96611.00;;;;5050899;28;20243;-79
2022/05/05 05:23:16;;;;;;;3.80;3.50;;;16.70;79.40;17.50;96612.00;;;;5043694;28;20255;-78
2022/05/05 05:25:44;;;;;;;3.70;3.50;;;16.80;79.20;17.60;96613.00;;;;5040364;28;20229;-78
2022/05/05 05:28:11;;;;;;;3.60;3.40;;;16.80;79.10;17.60;96616.00;;;;5036411;28;20201;-79
2022/05/05 05:30:39;;;;;;;3.77;3.47;;;16.90;79.00;17.60;96621.00;;;;5044906;28;20250;-81
2022/05/05 05:33:08;;;;;;;3.23;3.03;;;16.90;79.10;17.70;96631.00;;;;5051107;28;20223;-78
2022/05/05 05:35:36;;;;;;;3.37;3.17;;;17.00;79.20;17.80;96624.00;;;;5050651;28;20203;-83
2022/05/05 05:38:04;;;;;;;3.20;3.00;;;17.00;79.20;17.90;96633.00;;;;5032968;28;20228;-78
2022/05/05 05:40:31;;;;;;;3.03;2.83;;;17.10;79.20;17.90;96630.00;;;;5041415;28;20255;-81
2022/05/05 05:42:58;;;;;;;3.07;2.70;;;17.10;79.00;17.90;96629.00;;;;5041299;28;20225;-81
2022/05/05 05:45:26;;;;;;;3.70;2.73;;;17.20;78.80;18.00;96618.00;;;;5041077;28;20197;-78
2022/05/05 05:47:53;;;;;;;3.00;2.80;;;17.20;78.60;18.10;96614.00;;;;5038405;28;20203;-78
2022/05/05 05:50:21;;;;;;;3.50;3.20;;;17.20;78.30;18.10;96606.00;;;;5048602;28;20223;-80
2022/05/05 05:52:49;;;;;;;3.50;3.20;;;17.30;78.20;18.20;96604.00;;;;5057603;28;20251;-79
2022/05/05 05:55:16;;;;;;;3.57;3.27;;;17.40;78.10;18.20;96612.00;;;;5064692;28;20200;-80
2022/05/05 05:57:43;;;;;;;3.27;3.07;;;17.40;77.80;18.30;96619.00;;;;5058034;28;20212;-80
2022/05/05 06:00:12;;;;;;;3.47;3.17;;;17.40;77.80;18.30;96621.00;;;;5054455;28;20201;-79
2022/05/05 06:05:46;;;;;;;3.47;3.17;;;17.60;78.10;18.50;96623.00;;;;5061896;28;20266;-80
2022/05/05 06:08:25;;;;;;;3.87;3.60;;;17.60;78.00;18.50;96639.00;;;;5056377;28;20210;-80
2022/05/05 06:11:29;;;;;;;5.30;3.67;;;17.70;78.20;18.60;96639.00;;;;5046398;28;20193;-81
2022/05/05 06:14:17;;;;;;;3.67;3.37;;;17.80;77.60;18.70;96634.00;;;;5051562;28;20205;-81
2022/05/05 06:19:56;;;;;;;3.53;3.33;;;17.90;77.20;18.80;96641.00;;;;5054890;28;20207;-79
2022/05/05 06:22:30;;;;;;;3.70;3.50;;;18.00;77.70;18.90;96639.00;;;;5042665;28;20221;-80
2022/05/05 06:25:24;;;;;;;3.87;3.57;;;18.00;77.80;19.00;96643.00;;;;5048067;28;20196;-80
2022/05/05 06:27:59;;;;;;;3.07;2.80;;;18.10;77.30;19.20;96648.00;;;;5043754;28;20201;-81
2022/05/05 06:33:28;;;;;;;3.80;3.40;;;18.30;77.20;19.40;96648.00;;;;5049234;28;20506;-81
2022/05/05 06:36:00;;;;;;;3.60;3.30;;;18.40;77.30;19.50;96647.00;;;;5047970;28;20193;-80
2022/05/05 06:38:36;;;;;;;3.97;3.63;;;18.50;77.30;19.60;96643.00;;;;5040458;28;20307;-82
2022/05/05 06:41:15;;;;;;;3.83;3.60;;;18.60;77.00;19.70;96642.00;;;;5044622;28;20254;-80
2022/05/05 06:46:44;;;;;;;3.67;3.47;;;18.80;76.60;19.90;96667.00;;;;5017295;28;20628;-81
2022/05/05 06:49:35;;;;;;;4.07;3.77;;;18.90;76.60;20.00;96672.00;;;;5050244;28;20205;-81
2022/05/05 06:52:15;;;;;;;3.63;3.40;;;19.00;76.40;20.20;96669.00;;;;5041696;28;20758;-81
2022/05/05 06:57:37;;;;;;;4.13;3.83;;;19.20;76.10;20.40;96681.00;;;;5038946;28;20256;-80
2022/05/05 07:00:17;;;;;;;4.40;4.10;;;19.30;75.80;20.50;96670.00;;;;5049539;28;20197;-79
2022/05/05 07:02:51;;;;;;;4.47;4.10;;;19.30;75.10;20.60;96668.00;;;;5045784;28;20229;-81
2022/05/05 07:05:50;;;;;;;3.63;3.43;;;19.40;75.10;20.60;96661.00;;;;5058251;28;20264;-81
2022/05/05 07:10:52;;;;;;;10.40;3.93;;;19.50;75.10;20.70;96651.00;;;;5012619;28;20197;-79
2022/05/05 07:12:01;;;;;;;4.27;3.90;;;19.60;74.20;20.70;96657.00;;;;5046942;28;20669;-81
2022/05/05 07:14:59;;;;;;;4.30;3.90;;;19.70;73.40;20.60;96666.00;;;;5044411;28;20197;-81
2022/05/05 07:17:57;;;;;;;4.40;4.10;;;19.70;73.30;20.60;96661.00;;;;5051518;28;20224;-80
2022/05/05 07:20:32;;;;;;;4.27;3.97;;;19.70;73.80;20.70;96658.00;;;;5006306;28;20225;-80
2022/05/05 07:23:18;;;;;;;3.97;3.77;;;19.80;74.30;20.90;96668.00;;;;5051130;28;20214;-81
2022/05/05 07:26:02;;;;;;;4.40;4.10;;;19.80;74.00;21.00;96670.00;;;;5045611;28;20206;-80
2022/05/05 07:29:08;;;;;;;4.73;4.37;;;20.00;73.90;21.20;96679.00;;;;5047140;28;20284;-80
2022/05/05 07:31:35;;;;;;;4.00;3.70;;;20.00;74.10;21.30;96680.00;;;;5046030;28;20243;-80
2022/05/05 07:34:02;;;;;;;4.33;4.03;;;20.20;74.60;21.40;96675.00;;;;5047923;28;20204;-79
2022/05/05 07:36:29;;;;;;;4.60;4.20;;;20.30;73.90;21.50;96684.00;;;;5042289;28;20204;-79
2022/05/05 07:38:59;;;;;;;4.50;4.20;;;20.40;73.50;21.60;96697.00;;;;5051665;28;20232;-79
2022/05/05 07:41:26;;;;;;;4.57;4.20;;;20.50;73.10;21.70;96699.00;;;;5047162;28;20210;-79
2022/05/05 07:43:54;;;;;;;4.83;4.53;;;20.60;73.20;21.80;96700.00;;;;5050609;28;20346;-79
2022/05/05 07:46:23;;;;;;;5.10;4.60;;;20.60;72.90;21.90;96704.00;;;;5050461;28;20661;-79
2022/05/05 07:48:52;;;;;;;4.60;4.20;;;20.70;72.60;22.00;96704.00;;;;5054061;28;20202;-80
2022/05/05 07:51:27;;;;;;;4.83;4.53;;;20.80;72.10;22.10;96708.00;;;;5046798;28;20958;-79
2022/05/05 07:56:36;;;;;;;6.03;5.53;;;21.00;72.20;22.40;96712.00;;;;5053509;28;20197;-80
2022/05/05 07:59:04;;;;;;;5.10;4.67;;;21.10;72.00;22.50;96713.00;;;;5056882;28;20252;-79
2022/05/05 08:01:31;;;;;;;5.43;5.03;;;21.30;72.10;22.70;96716.00;;;;5053292;28;20303;-80
2022/05/05 08:03:58;;;;;;;4.93;4.63;;;21.30;71.80;22.90;96715.00;;;;5080370;22;20226;-82
2022/05/05 08:06:26;;;;;;;4.87;4.47;;;21.50;71.80;23.10;96720.00;;;;5060045;28;20214;-80
2022/05/05 08:08:53;;;;;;;5.10;4.60;;;21.60;71.10;23.30;96722.00;;;;5054536;28;20200;-81
2022/05/05 08:11:20;;;;;;;4.77;4.47;;;21.80;70.90;23.50;96723.00;;;;5052403;28;20201;-80
2022/05/05 08:13:47;;;;;;;5.10;4.70;;;21.90;71.20;23.70;96723.00;;;;5067887;28;20219;-80
2022/05/05 08:16:16;;;;;;;5.23;4.83;;;22.10;71.40;24.00;96723.00;;;;5054814;28;20231;-79
2022/05/05 08:18:43;;;;;;;5.23;4.83;;;22.30;71.10;24.30;96730.00;;;;5046753;28;20309;-82
2022/05/05 08:21:11;;;;;;;5.03;4.63;;;22.50;70.40;24.60;96732.00;;;;5062972;28;20207;-79
2022/05/05 08:23:39;;;;;;;5.40;5.00;;;22.70;69.80;24.80;96733.00;;;;5056040;28;20228;-80
2022/05/05 08:28:51;;;;;;;4.10;3.80;;;23.10;68.50;25.30;96731.00;;;;5053222;28;20218;-79
2022/05/05 08:31:19;;;;;;;4.63;4.30;;;23.30;68.70;25.50;96744.00;;;;5055943;28;20199;-80
2022/05/05 08:33:47;;;;;;;4.93;4.53;;;23.50;67.90;25.90;96743.00;;;;5060837;28;20216;-80
2022/05/05 08:36:14;;;;;;;4.73;4.33;;;23.80;67.00;26.10;96741.00;;;;5063747;28;20257;-80
2022/05/05 08:38:41;;;;;;;4.37;4.07;;;24.00;66.80;26.30;96743.00;;;;5054054;28;20212;-83
2022/05/05 08:41:12;;;;;;;4.17;3.87;;;24.20;66.20;26.60;96740.00;;;;5055286;28;20199;-80
2022/05/05 08:43:40;;;;;;;4.17;3.87;;;24.40;65.80;26.90;96731.00;;;;5054196;28;20216;-82
2022/05/05 08:46:14;;;;;;;4.63;4.23;;;24.70;66.90;27.40;96744.00;;;;5055873;28;20200;-80
2022/05/05 08:48:45;;;;;;;4.10;3.90;;;25.10;65.80;27.80;96746.00;;;;5049317;28;20234;-80
2022/05/05 08:51:18;;;;;;;3.93;3.63;;;25.40;66.10;28.10;96750.00;;;;5057768;28;20204;-83
2022/05/05 08:53:50;;;;;;;4.23;3.93;;;25.80;64.90;28.40;96741.00;;;;5058579;28;20227;-80
2022/05/05 08:56:17;;;;;;;3.78;3.58;;;26.10;63.50;28.70;96746.00;;;;5054148;28;20200;-80
2022/05/05 08:58:44;;;;;;;4.40;4.10;;;26.40;63.60;29.10;96742.00;;;;5059159;28;20236;-81
2022/05/05 09:01:11;;;;;;;3.90;3.63;;;26.80;62.90;29.50;96754.00;;;;5054687;28;20646;-80
2022/05/05 09:03:38;;;;;;;3.60;3.40;;;27.20;62.10;29.70;96754.00;;;;5053298;28;20223;-84
2022/05/05 09:06:07;;;;;;;4.25;3.85;;;27.50;61.00;29.80;96762.00;;;;5035949;28;20189;-80
2022/05/05 09:08:35;;;;;;;4.22;3.90;;;27.80;59.70;29.80;96757.00;;;;5056325;28;20204;-83
2022/05/05 09:11:05;;;;;;;3.60;3.40;;;28.00;58.70;29.90;96765.00;;;;5065795;28;20191;-80
2022/05/05 09:13:34;;;;;;;3.08;2.88;;;28.10;58.00;29.80;96767.00;;;;5048327;28;20224;-80
2022/05/05 09:16:02;;;;;;;2.85;2.65;;;28.20;56.30;29.60;96764.00;;;;5066874;28;20191;-81
2022/05/05 09:18:31;;;;;;;2.88;2.67;;;28.30;55.80;29.40;96767.00;;;;5070525;28;20223;-80
2022/05/05 09:21:01;;;;;;;2.55;2.42;;;28.20;54.80;29.00;96772.00;;;;5055103;28;20283;-84
2022/05/05 09:23:34;;;;;;;6.10;3.47;;;28.10;53.60;28.60;96769.00;;;;5053516;28;20289;-81
2022/05/05 09:26:02;;;;;;;3.93;3.50;;;27.80;56.80;28.00;96773.00;;;;5056530;28;20268;-80
2022/05/05 09:28:32;;;;;;;3.67;3.07;;;27.50;59.20;27.40;96778.00;;;;5072353;28;20223;-81
2022/05/05 09:31:05;;;;;;;5.03;3.63;;;27.10;60.60;26.90;96762.00;;;;5076779;28;20192;-82
2022/05/05 09:33:42;;;;;;;3.87;3.50;;;26.60;60.80;26.30;96779.00;;;;5059009;28;20212;-80
2022/05/05 09:36:11;;;;;;;5.20;3.70;;;26.10;62.00;25.80;96777.00;;;;5069583;28;20197;-79
2022/05/05 09:38:55;;;;;;;5.37;4.03;;;25.50;63.20;25.20;96769.00;;;;5055910;28;20722;-79
2022/05/05 09:41:25;;;;;;;4.53;4.00;;;24.90;65.00;24.70;96771.00;;;;5058240;28;20196;-82
2022/05/05 09:43:55;;;;;;;6.30;4.07;;;24.40;65.80;24.20;96768.00;;;;5063143;28;20209;-82
2022/05/05 09:46:33;;;;;;;4.67;4.17;;;23.90;67.00;23.80;96768.00;;;;5071712;28;20284;-82
2022/05/05 09:49:12;;;;;;;3.90;3.60;;;23.40;68.40;23.40;96763.00;;;;5055543;28;20200;-79
2022/05/05 09:57:39;;;;;;;4.23;3.83;;;23.00;69.20;23.20;96768.00;;;;5061329;28;20180;-80
2022/05/05 09:57:44;;;;;;;4.13;3.83;;;22.30;71.10;22.80;96763.00;;;;5042390;28;20704;-79
2022/05/05 10:00:37;;;;;;;4.07;3.67;;;22.00;72.10;22.60;96765.00;;;;5055821;28;20197;-79
2022/05/05 10:05:54;;;;;;;3.80;3.50;;;21.60;74.60;22.50;96758.00;;;;5056704;28;20239;-79
2022/05/05 10:08:24;;;;;;;4.10;3.80;;;21.50;75.90;22.50;96759.00;;;;5056131;28;20208;-79
2022/05/05 10:10:53;;;;;;;3.90;3.60;;;21.40;77.00;22.50;96754.00;;;;5056466;28;20203;-79
2022/05/05 10:13:23;;;;;;;3.83;3.20;;;21.40;78.10;22.50;96755.00;;;;5056910;28;20217;-80
2022/05/05 10:15:52;;;;;;;3.40;3.20;;;21.40;78.60;22.60;96756.00;;;;5056760;28;20197;-80
2022/05/05 10:18:20;;;;;;;3.27;3.07;;;21.40;79.00;22.60;96745.00;;;;5056200;28;20587;-79
2022/05/05 10:20:47;;;;;;;3.83;3.47;;;21.40;79.30;22.60;96742.00;;;;5055940;28;20683;-79
2022/05/05 10:23:21;;;;;;;4.17;3.87;;;21.40;79.40;22.80;96746.00;;;;5056819;28;20230;-79
2022/05/05 10:25:54;;;;;;;3.40;3.20;;;21.60;81.20;22.90;96748.00;;;;5055846;28;20290;-79
2022/05/05 10:28:47;;;;;;;4.47;4.17;;;21.90;83.30;23.20;96744.00;;;;5057896;28;20200;-79
2022/05/05 10:31:46;;;;;;;4.07;3.80;;;22.20;85.40;23.50;96744.00;;;;5039192;28;20233;-81
2022/05/05 10:34:18;;;;;;;4.40;4.10;;;22.50;79.00;23.70;96741.00;;;;5052793;28;20585;-80
2022/05/05 10:37:03;;;;;;;3.93;3.73;;;22.90;83.20;24.00;96734.00;;;;5056794;28;20188;-80
2022/05/05 10:39:50;;;;;;;3.77;3.57;;;23.30;81.20;24.20;96735.00;;;;5058323;28;20799;-79
2022/05/05 10:42:33;;;;;;;3.10;2.80;;;23.70;79.20;24.30;96731.00;;;;5062550;28;20245;-82
2022/05/05 10:45:14;;;;;;;3.17;2.83;;;24.00;77.30;24.50;96719.00;;;;5058541;28;20226;-80
2022/05/05 10:48:29;;;;;;;3.30;3.03;;;24.30;76.90;24.50;96731.00;;;;5058652;28;20219;-81
2022/05/05 10:51:07;;;;;;;3.63;3.40;;;24.50;76.30;24.60;96725.00;;;;5051234;28;20280;-80
2022/05/05 10:53:41;;;;;;;3.53;3.33;;;24.60;74.20;24.70;96724.00;;;;5058563;28;20307;-80
2022/05/05 10:56:28;;;;;;;3.97;3.23;;;24.60;71.50;24.70;96728.00;;;;5057495;28;20198;-80
2022/05/05 10:59:14;;;;;;;3.00;2.77;;;24.60;71.40;24.60;96715.00;;;;5058680;28;20224;-81
2022/05/05 11:02:18;;;;;;;3.10;2.90;;;24.50;68.60;24.50;96722.00;;;;5055804;28;20211;-79
2022/05/05 11:04:46;;;;;;;2.87;2.67;;;24.40;67.60;24.40;96716.00;;;;5016505;28;20233;-80
2022/05/05 11:07:36;;;;;;;2.90;2.70;;;24.30;67.30;24.30;96719.00;;;;5061701;28;20287;-80
2022/05/05 11:10:08;;;;;;;3.07;2.87;;;24.10;67.90;24.20;96715.00;;;;5059470;28;20204;-83
2022/05/05 11:12:38;;;;;;;3.17;2.97;;;23.90;64.70;24.00;96721.00;;;;5060179;28;20207;-82
2022/05/05 11:23:44;;;;;;;2.93;2.73;;;23.30;66.40;23.70;96709.00;;;;5058172;28;20259;-80
2022/05/05 11:26:15;;;;;;;3.17;2.90;;;23.20;66.90;23.70;96714.00;;;;5057746;28;20191;-81
2022/05/05 11:28:43;;;;;;;3.53;2.97;;;23.10;66.40;23.70;96710.00;;;;5057414;28;20202;-80
2022/05/05 11:31:23;;;;;;;3.20;2.77;;;23.00;66.10;23.60;96704.00;;;;5056904;28;20208;-80
2022/05/05 11:33:53;;;;;;;3.47;3.17;;;23.00;64.40;23.60;96701.00;;;;5056349;28;20216;-85
2022/05/05 11:36:21;;;;;;;2.87;2.70;;;22.90;65.70;23.50;96701.00;;;;5055756;28;20204;-81
2022/05/05 11:38:48;;;;;;;2.67;2.47;;;22.80;65.30;23.50;96701.00;;;;5054966;28;20230;-83
2022/05/05 11:41:19;;;;;;;2.67;2.47;;;22.70;64.30;23.50;96693.00;;;;5057872;28;20194;-81
2022/05/05 11:46:33;;;;;;;3.13;2.93;;;22.70;66.10;23.60;96689.00;;;;5057060;28;20228;-81
2022/05/05 11:49:01;;;;;;;2.80;2.60;;;22.70;65.60;23.60;96681.00;;;;5056645;28;20202;-80
2022/05/05 11:51:30;;;;;;;2.97;2.77;;;22.70;65.00;23.70;96680.00;;;;5056038;28;20204;-80
2022/05/05 11:54:07;;;;;;;2.70;2.50;;;22.80;65.60;23.80;96677.00;;;;5057263;28;20251;-79
2022/05/05 11:56:36;;;;;;;2.60;2.40;;;22.80;64.10;23.80;96677.00;;;;5055603;28;20207;-80
2022/05/05 12:02:09;;;;;;;2.97;2.77;;;22.90;63.70;23.90;96665.00;;;;5055979;28;20681;-80